sensor_id;sensor_type;location;lat;lon;timestamp;pressure;altitude;pressure_sealevel;temperature;humidity
75290;BME280;63883;48.996;20.804;2023-05-28T00:01:22;97050.47;;;6.39;93.87
75290;BME280;63883;48.996;20.804;2023-05-28T00:03:51;97047.97;;;6.32;94.22
75290;BME280;63883;48.996;20.804;2023-05-28T00:06:17;97044.59;;;6.26;94.48
75290;BME280;63883;48.996;20.804;2023-05-28T00:08:42;97047.97;;;6.22;94.87
75290;BME280;63883;48.996;20.804;2023-05-28T00:11:08;97050.53;;;6.19;95.44
75290;BME280;63883;48.996;20.804;2023-05-28T00:13:34;97033.56;;;6.43;95.61
75290;BME280;63883;48.996;20.804;2023-05-28T00:15:59;97044.47;;;6.57;94.33
75290;BME280;63883;48.996;20.804;2023-05-28T00:18:25;97041.19;;;6.37;94.54
75290;BME280;63883;48.996;20.804;2023-05-28T00:20:54;97038.66;;;6.29;95.05
75290;BME280;63883;48.996;20.804;2023-05-28T00:23:19;97039.53;;;6.20;95.03
75290;BME280;63883;48.996;20.804;2023-05-28T00:25:46;97032.81;;;6.13;95.08
75290;BME280;63883;48.996;20.804;2023-05-28T00:28:12;97036.19;;;6.14;95.16
75290;BME280;63883;48.996;20.804;2023-05-28T00:30:38;97035.38;;;6.12;95.04
75290;BME280;63883;48.996;20.804;2023-05-28T00:33:03;97035.34;;;6.10;95.47
75290;BME280;63883;48.996;20.804;2023-05-28T00:35:29;97036.25;;;5.97;95.81
75290;BME280;63883;48.996;20.804;2023-05-28T00:37:55;97032.00;;;5.95;95.68
75290;BME280;63883;48.996;20.804;2023-05-28T00:40:20;97024.41;;;5.93;96.06
75290;BME280;63883;48.996;20.804;2023-05-28T00:42:47;97014.28;;;5.93;96.25
75290;BME280;63883;48.996;20.804;2023-05-28T00:45:13;97020.19;;;5.83;96.39
75290;BME280;63883;48.996;20.804;2023-05-28T00:47:40;97009.19;;;5.84;96.23
75290;BME280;63883;48.996;20.804;2023-05-28T00:50:09;97008.38;;;5.79;96.41
75290;BME280;63883;48.996;20.804;2023-05-28T00:52:40;97007.56;;;5.66;96.96
75290;BME280;63883;48.996;20.804;2023-05-28T00:55:15;96999.97;;;5.66;97.05
75290;BME280;63883;48.996;20.804;2023-05-28T00:57:41;96993.22;;;5.56;97.16
75290;BME280;63883;48.996;20.804;2023-05-28T01:00:08;96995.75;;;5.48;97.24
75290;BME280;63883;48.996;20.804;2023-05-28T01:02:34;96996.59;;;5.41;97.30
75290;BME280;63883;48.996;20.804;2023-05-28T01:05:01;96985.66;;;5.36;97.88
75290;BME280;63883;48.996;20.804;2023-05-28T01:07:27;96990.72;;;5.39;97.76
75290;BME280;63883;48.996;20.804;2023-05-28T01:09:53;96994.94;;;5.36;97.28
75290;BME280;63883;48.996;20.804;2023-05-28T01:12:19;96990.69;;;5.33;97.38
75290;BME280;63883;48.996;20.804;2023-05-28T01:14:47;96986.50;;;5.29;97.38
75290;BME280;63883;48.996;20.804;2023-05-28T01:17:13;96991.56;;;5.25;97.88
75290;BME280;63883;48.996;20.804;2023-05-28T01:19:40;96987.34;;;5.31;97.80
75290;BME280;63883;48.996;20.804;2023-05-28T01:22:07;96983.13;;;5.38;98.54
75290;BME280;63883;48.996;20.804;2023-05-28T01:24:37;96985.66;;;5.27;98.36
75290;BME280;63883;48.996;20.804;2023-05-28T01:27:06;96983.16;;;5.24;97.92
75290;BME280;63883;48.996;20.804;2023-05-28T01:29:31;96978.94;;;5.17;97.61
75290;BME280;63883;48.996;20.804;2023-05-28T01:31:58;96980.63;;;5.17;97.50
75290;BME280;63883;48.996;20.804;2023-05-28T01:34:23;96976.38;;;5.06;97.67
75290;BME280;63883;48.996;20.804;2023-05-28T01:37:01;96983.97;;;5.09;97.73
75290;BME280;63883;48.996;20.804;2023-05-28T01:39:34;96978.06;;;5.07;98.27
75290;BME280;63883;48.996;20.804;2023-05-28T01:42:02;96974.69;;;4.92;98.69
75290;BME280;63883;48.996;20.804;2023-05-28T01:44:29;96970.47;;;4.88;98.90
75290;BME280;63883;48.996;20.804;2023-05-28T01:46:56;96965.41;;;4.86;98.35
75290;BME280;63883;48.996;20.804;2023-05-28T01:49:22;96962.06;;;4.89;99.03
75290;BME280;63883;48.996;20.804;2023-05-28T01:51:50;96964.59;;;4.87;99.05
75290;BME280;63883;48.996;20.804;2023-05-28T01:54:16;96963.72;;;4.75;98.47
75290;BME280;63883;48.996;20.804;2023-05-28T01:56:42;96966.25;;;4.73;98.41
75290;BME280;63883;48.996;20.804;2023-05-28T01:59:07;96952.75;;;4.71;98.68
75290;BME280;63883;48.996;20.804;2023-05-28T02:01:33;96956.97;;;4.70;98.73
75290;BME280;63883;48.996;20.804;2023-05-28T02:04:01;96956.13;;;4.67;98.47
75290;BME280;63883;48.996;20.804;2023-05-28T02:06:29;96950.22;;;4.69;98.34
75290;BME280;63883;48.996;20.804;2023-05-28T02:08:55;96951.06;;;4.59;98.64
75290;BME280;63883;48.996;20.804;2023-05-28T02:11:21;96950.19;;;4.54;98.96
75290;BME280;63883;48.996;20.804;2023-05-28T02:13:50;96935.88;;;4.43;98.58
75290;BME280;63883;48.996;20.804;2023-05-28T02:16:16;96949.34;;;4.46;98.61
75290;BME280;63883;48.996;20.804;2023-05-28T02:18:46;96940.09;;;4.48;98.36
75290;BME280;63883;48.996;20.804;2023-05-28T02:21:13;96936.69;;;4.40;98.41
75290;BME280;63883;48.996;20.804;2023-05-28T02:23:42;96946.81;;;4.37;98.72
75290;BME280;63883;48.996;20.804;2023-05-28T02:26:09;96941.72;;;4.34;99.77
75290;BME280;63883;48.996;20.804;2023-05-28T02:28:34;96947.63;;;4.28;99.58
75290;BME280;63883;48.996;20.804;2023-05-28T02:31:00;96949.31;;;4.29;99.55
75290;BME280;63883;48.996;20.804;2023-05-28T02:33:26;96940.88;;;4.24;99.55
75290;BME280;63883;48.996;20.804;2023-05-28T02:35:52;96949.28;;;4.23;99.15
75290;BME280;63883;48.996;20.804;2023-05-28T02:38:18;96950.09;;;4.15;99.23
75290;BME280;63883;48.996;20.804;2023-05-28T02:40:44;96950.91;;;4.08;99.29
75290;BME280;63883;48.996;20.804;2023-05-28T02:43:09;96949.22;;;4.05;99.71
75290;BME280;63883;48.996;20.804;2023-05-28T02:45:35;96952.56;;;4.01;99.59
75290;BME280;63883;48.996;20.804;2023-05-28T02:48:01;96952.56;;;4.06;99.54
75290;BME280;63883;48.996;20.804;2023-05-28T02:50:27;96942.47;;;4.04;99.45
75290;BME280;63883;48.996;20.804;2023-05-28T02:52:52;96950.03;;;4.06;99.21
75290;BME280;63883;48.996;20.804;2023-05-28T02:55:18;96949.22;;;4.07;99.19
75290;BME280;63883;48.996;20.804;2023-05-28T02:57:43;96953.41;;;4.02;99.24
75290;BME280;63883;48.996;20.804;2023-05-28T03:00:10;96953.41;;;4.02;99.69
75290;BME280;63883;48.996;20.804;2023-05-28T03:02:36;96961.81;;;4.01;99.36
75290;BME280;63883;48.996;20.804;2023-05-28T03:05:02;96958.47;;;4.03;99.93
75290;BME280;63883;48.996;20.804;2023-05-28T03:07:31;96955.09;;;4.01;99.76
75290;BME280;63883;48.996;20.804;2023-05-28T03:09:57;96960.97;;;4.02;99.58
75290;BME280;63883;48.996;20.804;2023-05-28T03:12:22;96968.56;;;4.02;99.10
75290;BME280;63883;48.996;20.804;2023-05-28T03:14:49;96955.03;;;3.97;99.33
75290;BME280;63883;48.996;20.804;2023-05-28T03:17:15;96956.78;;;4.01;99.29
75290;BME280;63883;48.996;20.804;2023-05-28T03:19:41;96958.47;;;4.02;99.65
75290;BME280;63883;48.996;20.804;2023-05-28T03:22:06;96952.53;;;3.98;99.71
75290;BME280;63883;48.996;20.804;2023-05-28T03:24:32;96955.06;;;3.98;99.73
75290;BME280;63883;48.996;20.804;2023-05-28T03:26:59;96952.63;;;4.10;99.83
75290;BME280;63883;48.996;20.804;2023-05-28T03:29:25;96956.81;;;4.13;99.76
75290;BME280;63883;48.996;20.804;2023-05-28T03:31:51;96947.59;;;4.16;99.55
75290;BME280;63883;48.996;20.804;2023-05-28T03:34:17;96948.41;;;4.14;99.87
75290;BME280;63883;48.996;20.804;2023-05-28T03:36:43;96950.94;;;4.18;100.00
75290;BME280;63883;48.996;20.804;2023-05-28T03:39:09;96950.13;;;4.24;99.96
75290;BME280;63883;48.996;20.804;2023-05-28T03:41:38;96952.63;;;4.25;99.62
75290;BME280;63883;48.996;20.804;2023-05-28T03:44:04;96949.28;;;4.28;99.68
75290;BME280;63883;48.996;20.804;2023-05-28T03:46:30;96952.66;;;4.28;99.84
75290;BME280;63883;48.996;20.804;2023-05-28T03:48:56;96960.19;;;4.19;100.00
75290;BME280;63883;48.996;20.804;2023-05-28T03:51:22;96954.31;;;4.22;100.00
75290;BME280;63883;48.996;20.804;2023-05-28T03:53:49;96956.88;;;4.25;100.00
75290;BME280;63883;48.996;20.804;2023-05-28T03:56:16;96955.22;;;4.36;100.00
75290;BME280;63883;48.996;20.804;2023-05-28T03:58:42;96949.34;;;4.48;100.00
75290;BME280;63883;48.996;20.804;2023-05-28T04:01:07;96951.03;;;4.55;100.00
75290;BME280;63883;48.996;20.804;2023-05-28T04:03:35;96944.34;;;4.72;100.00
75290;BME280;63883;48.996;20.804;2023-05-28T04:06:00;96950.25;;;4.85;100.00
75290;BME280;63883;48.996;20.804;2023-05-28T04:08:26;96951.09;;;4.91;100.00
75290;BME280;63883;48.996;20.804;2023-05-28T04:10:52;96951.09;;;5.05;100.00
75290;BME280;63883;48.996;20.804;2023-05-28T04:13:18;96946.03;;;5.26;100.00
75290;BME280;63883;48.996;20.804;2023-05-28T04:15:43;96947.72;;;5.38;99.89
75290;BME280;63883;48.996;20.804;2023-05-28T04:18:09;96957.00;;;5.46;100.00
75290;BME280;63883;48.996;20.804;2023-05-28T04:20:35;96951.91;;;5.59;99.43
75290;BME280;63883;48.996;20.804;2023-05-28T04:23:03;96951.88;;;5.65;99.96
75290;BME280;63883;48.996;20.804;2023-05-28T04:25:29;96946.81;;;5.75;99.92
75290;BME280;63883;48.996;20.804;2023-05-28T04:27:55;96942.56;;;5.85;99.71
75290;BME280;63883;48.996;20.804;2023-05-28T04:30:22;96940.03;;;5.97;100.00
75290;BME280;63883;48.996;20.804;2023-05-28T04:32:49;96943.34;;;6.08;99.96
75290;BME280;63883;48.996;20.804;2023-05-28T04:35:18;96944.19;;;6.16;99.59
75290;BME280;63883;48.996;20.804;2023-05-28T04:37:45;96944.97;;;6.21;98.05
75290;BME280;63883;48.996;20.804;2023-05-28T04:40:11;96949.16;;;6.32;98.55
75290;BME280;63883;48.996;20.804;2023-05-28T04:42:38;96946.59;;;6.41;98.97
75290;BME280;63883;48.996;20.804;2023-05-28T04:45:07;96947.38;;;6.55;98.97
75290;BME280;63883;48.996;20.804;2023-05-28T04:47:33;96949.91;;;6.52;98.38
75290;BME280;63883;48.996;20.804;2023-05-28T04:50:01;96939.72;;;6.58;98.15
75290;BME280;63883;48.996;20.804;2023-05-28T04:52:29;96939.69;;;6.64;97.46
75290;BME280;63883;48.996;20.804;2023-05-28T04:54:57;96941.22;;;6.86;96.91
75290;BME280;63883;48.996;20.804;2023-05-28T04:57:23;96947.91;;;6.99;96.92
75290;BME280;63883;48.996;20.804;2023-05-28T04:59:48;96941.00;;;7.17;96.58
75290;BME280;63883;48.996;20.804;2023-05-28T05:02:15;96943.34;;;7.41;95.01
75290;BME280;63883;48.996;20.804;2023-05-28T05:04:44;96938.16;;;7.50;94.76
75290;BME280;63883;48.996;20.804;2023-05-28T05:07:14;96938.09;;;7.59;94.51
75290;BME280;63883;48.996;20.804;2023-05-28T05:09:40;96938.84;;;7.70;93.27
75290;BME280;63883;48.996;20.804;2023-05-28T05:12:07;96937.16;;;7.69;92.97
75290;BME280;63883;48.996;20.804;2023-05-28T05:14:33;96942.94;;;7.80;92.37
75290;BME280;63883;48.996;20.804;2023-05-28T05:16:59;96935.25;;;7.88;91.06
75290;BME280;63883;48.996;20.804;2023-05-28T05:19:24;96933.50;;;7.93;92.04
75290;BME280;63883;48.996;20.804;2023-05-28T05:21:51;96930.69;;;8.14;90.64
75290;BME280;63883;48.996;20.804;2023-05-28T05:24:17;96928.03;;;8.27;90.04
75290;BME280;63883;48.996;20.804;2023-05-28T05:26:42;96935.59;;;8.33;88.37
75290;BME280;63883;48.996;20.804;2023-05-28T05:29:08;96935.53;;;8.36;87.90
75290;BME280;63883;48.996;20.804;2023-05-28T05:31:34;96935.41;;;8.46;86.99
75290;BME280;63883;48.996;20.804;2023-05-28T05:33:59;96930.31;;;8.49;86.85
75290;BME280;63883;48.996;20.804;2023-05-28T05:36:25;96935.25;;;8.58;86.68
75290;BME280;63883;48.996;20.804;2023-05-28T05:38:51;96933.31;;;8.74;86.14
75290;BME280;63883;48.996;20.804;2023-05-28T05:41:17;96933.19;;;8.83;85.86
75290;BME280;63883;48.996;20.804;2023-05-28T05:43:43;96934.09;;;8.79;85.81
75290;BME280;63883;48.996;20.804;2023-05-28T05:46:08;96928.78;;;8.94;86.11
75290;BME280;63883;48.996;20.804;2023-05-28T05:48:34;96929.38;;;9.10;86.10
75290;BME280;63883;48.996;20.804;2023-05-28T05:51:00;96932.53;;;9.26;86.33
75290;BME280;63883;48.996;20.804;2023-05-28T05:53:28;96938.09;;;9.48;84.84
75290;BME280;63883;48.996;20.804;2023-05-28T05:55:54;96942.19;;;9.56;83.58
75290;BME280;63883;48.996;20.804;2023-05-28T05:58:19;96925.25;;;9.55;82.88
75290;BME280;63883;48.996;20.804;2023-05-28T06:00:47;96922.53;;;9.64;84.29
75290;BME280;63883;48.996;20.804;2023-05-28T06:03:15;96918.78;;;9.82;82.95
75290;BME280;63883;48.996;20.804;2023-05-28T06:05:41;96925.28;;;9.98;81.38
75290;BME280;63883;48.996;20.804;2023-05-28T06:08:07;96924.91;;;10.16;80.21
75290;BME280;63883;48.996;20.804;2023-05-28T06:10:33;96921.34;;;10.27;79.86
75290;BME280;63883;48.996;20.804;2023-05-28T06:12:59;96925.31;;;10.40;77.02
75290;BME280;63883;48.996;20.804;2023-05-28T06:15:27;96923.56;;;10.43;78.00
75290;BME280;63883;48.996;20.804;2023-05-28T06:17:55;96919.94;;;10.52;77.54
75290;BME280;63883;48.996;20.804;2023-05-28T06:20:21;96924.72;;;10.67;76.88
75290;BME280;63883;48.996;20.804;2023-05-28T06:22:47;96921.91;;;10.79;76.98
75290;BME280;63883;48.996;20.804;2023-05-28T06:25:13;96915.25;;;11.09;75.77
75290;BME280;63883;48.996;20.804;2023-05-28T06:27:40;96920.06;;;11.21;73.88
75290;BME280;63883;48.996;20.804;2023-05-28T06:30:06;96925.13;;;11.23;73.58
75290;BME280;63883;48.996;20.804;2023-05-28T06:32:33;96915.69;;;11.25;74.44
75290;BME280;63883;48.996;20.804;2023-05-28T06:35:00;96917.69;;;11.48;73.89
75290;BME280;63883;48.996;20.804;2023-05-28T06:37:26;96921.78;;;11.53;73.03
75290;BME280;63883;48.996;20.804;2023-05-28T06:39:51;96919.09;;;11.59;72.21
75290;BME280;63883;48.996;20.804;2023-05-28T06:42:17;96915.38;;;11.71;72.96
75290;BME280;63883;48.996;20.804;2023-05-28T06:44:43;96917.44;;;11.91;71.48
75290;BME280;63883;48.996;20.804;2023-05-28T06:47:09;96906.78;;;12.06;69.47
75290;BME280;63883;48.996;20.804;2023-05-28T06:49:34;96908.00;;;12.24;69.87
75290;BME280;63883;48.996;20.804;2023-05-28T06:52:00;96908.69;;;12.29;69.11
75290;BME280;63883;48.996;20.804;2023-05-28T06:54:26;96910.28;;;12.33;67.25
75290;BME280;63883;48.996;20.804;2023-05-28T06:56:52;96909.16;;;12.43;71.18
75290;BME280;63883;48.996;20.804;2023-05-28T06:59:17;96908.50;;;12.64;70.02
75290;BME280;63883;48.996;20.804;2023-05-28T07:01:43;96904.38;;;12.88;68.34
75290;BME280;63883;48.996;20.804;2023-05-28T07:04:09;96903.97;;;13.00;67.10
75290;BME280;63883;48.996;20.804;2023-05-28T07:06:34;96899.59;;;13.04;66.75
75290;BME280;63883;48.996;20.804;2023-05-28T07:09:00;96901.56;;;13.23;66.08
75290;BME280;63883;48.996;20.804;2023-05-28T07:11:26;96903.03;;;13.31;65.61
75290;BME280;63883;48.996;20.804;2023-05-28T07:13:55;96894.91;;;13.43;64.93
75290;BME280;63883;48.996;20.804;2023-05-28T07:16:21;96888.44;;;13.57;64.38
75290;BME280;63883;48.996;20.804;2023-05-28T07:18:47;96885.97;;;13.54;63.86
75290;BME280;63883;48.996;20.804;2023-05-28T07:21:13;96882.53;;;13.55;63.91
75290;BME280;63883;48.996;20.804;2023-05-28T07:23:39;96886.41;;;13.67;64.22
75290;BME280;63883;48.996;20.804;2023-05-28T07:26:05;96878.72;;;13.90;63.54
75290;BME280;63883;48.996;20.804;2023-05-28T07:28:31;96879.28;;;13.98;62.04
75290;BME280;63883;48.996;20.804;2023-05-28T07:30:57;96878.69;;;14.15;62.18
75290;BME280;63883;48.996;20.804;2023-05-28T07:33:23;96877.41;;;14.27;62.00
75290;BME280;63883;48.996;20.804;2023-05-28T07:35:49;96882.69;;;14.47;60.03
75290;BME280;63883;48.996;20.804;2023-05-28T07:38:15;96882.25;;;14.58;59.05
75290;BME280;63883;48.996;20.804;2023-05-28T07:40:41;96859.34;;;14.75;60.56
75290;BME280;63883;48.996;20.804;2023-05-28T07:43:07;96872.94;;;14.99;58.78
75290;BME280;63883;48.996;20.804;2023-05-28T07:45:33;96868.59;;;15.21;58.11
75290;BME280;63883;48.996;20.804;2023-05-28T07:48:00;96867.28;;;15.33;56.56
75290;BME280;63883;48.996;20.804;2023-05-28T07:50:26;96862.44;;;15.45;57.61
75290;BME280;63883;48.996;20.804;2023-05-28T07:52:52;96855.91;;;15.58;56.79
75290;BME280;63883;48.996;20.804;2023-05-28T07:55:17;96854.09;;;15.81;55.77
75290;BME280;63883;48.996;20.804;2023-05-28T07:57:43;96853.59;;;15.73;53.27
75290;BME280;63883;48.996;20.804;2023-05-28T08:00:09;96849.19;;;15.56;54.50
75290;BME280;63883;48.996;20.804;2023-05-28T08:02:44;96845.75;;;15.76;52.82
75290;BME280;63883;48.996;20.804;2023-05-28T08:05:10;96836.09;;;15.81;53.10
75290;BME280;63883;48.996;20.804;2023-05-28T08:07:37;96837.16;;;16.14;55.46
75290;BME280;63883;48.996;20.804;2023-05-28T08:10:03;96828.91;;;16.26;51.59
75290;BME280;63883;48.996;20.804;2023-05-28T08:12:30;96835.91;;;16.23;51.06
75290;BME280;63883;48.996;20.804;2023-05-28T08:14:55;96831.44;;;16.45;51.50
75290;BME280;63883;48.996;20.804;2023-05-28T08:17:21;96828.50;;;16.71;53.03
75290;BME280;63883;48.996;20.804;2023-05-28T08:19:48;96830.09;;;16.74;50.80
75290;BME280;63883;48.996;20.804;2023-05-28T08:22:14;96815.34;;;16.95;52.60
75290;BME280;63883;48.996;20.804;2023-05-28T08:24:40;96808.41;;;17.14;51.87
75290;BME280;63883;48.996;20.804;2023-05-28T08:27:05;96822.03;;;17.33;47.56
75290;BME280;63883;48.996;20.804;2023-05-28T08:29:32;96817.84;;;17.48;47.09
75290;BME280;63883;48.996;20.804;2023-05-28T08:31:59;96818.03;;;17.28;48.57
75290;BME280;63883;48.996;20.804;2023-05-28T08:34:25;96815.97;;;17.34;49.05
75290;BME280;63883;48.996;20.804;2023-05-28T08:36:52;96812.25;;;17.40;48.45
75290;BME280;63883;48.996;20.804;2023-05-28T08:39:17;96801.38;;;17.68;50.16
75290;BME280;63883;48.996;20.804;2023-05-28T08:41:44;96808.13;;;17.53;47.90
75290;BME280;63883;48.996;20.804;2023-05-28T08:44:10;96804.66;;;17.54;48.23
75290;BME280;63883;48.996;20.804;2023-05-28T08:46:36;96800.56;;;17.50;48.20
75290;BME280;63883;48.996;20.804;2023-05-28T08:49:02;96800.94;;;17.92;47.48
75290;BME280;63883;48.996;20.804;2023-05-28T08:51:30;96802.28;;;18.00;46.89
75290;BME280;63883;48.996;20.804;2023-05-28T08:53:58;96798.84;;;17.83;45.75
75290;BME280;63883;48.996;20.804;2023-05-28T08:56:24;96798.06;;;17.48;46.59
75290;BME280;63883;48.996;20.804;2023-05-28T08:58:51;96794.19;;;17.57;48.38
75290;BME280;63883;48.996;20.804;2023-05-28T09:01:17;96798.13;;;17.97;45.95
75290;BME280;63883;48.996;20.804;2023-05-28T09:03:42;96795.78;;;18.08;45.85
75290;BME280;63883;48.996;20.804;2023-05-28T09:06:09;96782.72;;;18.27;48.68
75290;BME280;63883;48.996;20.804;2023-05-28T09:08:34;96792.13;;;18.12;45.67
75290;BME280;63883;48.996;20.804;2023-05-28T09:11:13;96784.97;;;18.33;45.57
75290;BME280;63883;48.996;20.804;2023-05-28T09:13:42;96782.41;;;18.64;44.98
75290;BME280;63883;48.996;20.804;2023-05-28T09:16:08;96778.31;;;18.90;47.30
75290;BME280;63883;48.996;20.804;2023-05-28T09:18:35;96777.72;;;19.01;44.79
75290;BME280;63883;48.996;20.804;2023-05-28T09:21:06;96787.72;;;19.07;44.13
75290;BME280;63883;48.996;20.804;2023-05-28T09:23:33;96775.66;;;19.22;43.66
75290;BME280;63883;48.996;20.804;2023-05-28T09:26:00;96775.19;;;19.15;43.68
75290;BME280;63883;48.996;20.804;2023-05-28T09:28:26;96771.16;;;19.09;45.18
75290;BME280;63883;48.996;20.804;2023-05-28T09:31:02;96762.13;;;19.46;44.65
75290;BME280;63883;48.996;20.804;2023-05-28T09:33:27;96763.25;;;19.71;43.58
75290;BME280;63883;48.996;20.804;2023-05-28T09:36:00;96763.13;;;19.86;43.35
75290;BME280;63883;48.996;20.804;2023-05-28T09:38:26;96757.50;;;19.94;42.67
75290;BME280;63883;48.996;20.804;2023-05-28T09:40:55;96756.34;;;20.12;41.66
75290;BME280;63883;48.996;20.804;2023-05-28T09:43:27;96761.81;;;20.49;42.34
75290;BME280;63883;48.996;20.804;2023-05-28T09:46:08;96755.63;;;21.03;42.80
75290;BME280;63883;48.996;20.804;2023-05-28T09:48:34;96762.63;;;21.16;39.54
75290;BME280;63883;48.996;20.804;2023-05-28T09:51:04;96749.59;;;21.17;39.78
75290;BME280;63883;48.996;20.804;2023-05-28T09:53:31;96743.34;;;21.20;39.00
75290;BME280;63883;48.996;20.804;2023-05-28T09:56:00;96742.13;;;22.25;37.15
75290;BME280;63883;48.996;20.804;2023-05-28T09:58:31;96737.28;;;23.03;35.33
75290;BME280;63883;48.996;20.804;2023-05-28T10:01:08;96735.09;;;23.43;34.74
75290;BME280;63883;48.996;20.804;2023-05-28T10:03:38;96729.78;;;24.23;34.19
75290;BME280;63883;48.996;20.804;2023-05-28T10:06:10;96728.13;;;24.65;32.80
75290;BME280;63883;48.996;20.804;2023-05-28T10:08:37;96729.03;;;25.27;31.12
75290;BME280;63883;48.996;20.804;2023-05-28T10:11:06;96728.16;;;26.09;30.39
75290;BME280;63883;48.996;20.804;2023-05-28T10:13:34;96714.03;;;26.21;29.34
75290;BME280;63883;48.996;20.804;2023-05-28T10:16:01;96721.94;;;25.90;29.57
75290;BME280;63883;48.996;20.804;2023-05-28T10:18:27;96720.72;;;26.54;29.34
75290;BME280;63883;48.996;20.804;2023-05-28T10:20:53;96707.75;;;27.10;28.72
75290;BME280;63883;48.996;20.804;2023-05-28T10:23:20;96710.69;;;25.99;28.79
75290;BME280;63883;48.996;20.804;2023-05-28T10:25:48;96704.59;;;27.06;30.59
75290;BME280;63883;48.996;20.804;2023-05-28T10:28:14;96705.84;;;27.95;29.82
75290;BME280;63883;48.996;20.804;2023-05-28T10:30:41;96698.44;;;27.54;28.36
75290;BME280;63883;48.996;20.804;2023-05-28T10:33:11;96705.41;;;28.27;27.13
75290;BME280;63883;48.996;20.804;2023-05-28T10:35:54;96704.69;;;28.08;26.58
75290;BME280;63883;48.996;20.804;2023-05-28T10:38:20;96704.16;;;27.20;27.74
75290;BME280;63883;48.996;20.804;2023-05-28T10:40:46;96713.16;;;26.51;28.17
75290;BME280;63883;48.996;20.804;2023-05-28T10:59:38;96697.06;;;28.77;27.45
75290;BME280;63883;48.996;20.804;2023-05-28T11:02:08;96691.25;;;28.56;25.56
75290;BME280;63883;48.996;20.804;2023-05-28T11:04:36;96689.63;;;28.72;26.67
75290;BME280;63883;48.996;20.804;2023-05-28T11:07:04;96690.31;;;27.84;27.35
75290;BME280;63883;48.996;20.804;2023-05-28T11:09:30;96687.03;;;27.36;28.72
75290;BME280;63883;48.996;20.804;2023-05-28T11:12:00;96678.59;;;28.06;27.42
75290;BME280;63883;48.996;20.804;2023-05-28T11:14:37;96672.44;;;28.43;26.42
75290;BME280;63883;48.996;20.804;2023-05-28T11:17:15;96673.91;;;28.98;26.66
75290;BME280;63883;48.996;20.804;2023-05-28T11:19:51;96676.59;;;28.81;25.52
75290;BME280;63883;48.996;20.804;2023-05-28T11:22:18;96677.69;;;28.60;25.71
75290;BME280;63883;48.996;20.804;2023-05-28T11:24:56;96676.06;;;28.59;25.87
75290;BME280;63883;48.996;20.804;2023-05-28T11:27:29;96667.88;;;28.00;26.94
75290;BME280;63883;48.996;20.804;2023-05-28T11:29:58;96667.28;;;28.51;26.08
75290;BME280;63883;48.996;20.804;2023-05-28T11:32:25;96660.88;;;27.90;27.59
75290;BME280;63883;48.996;20.804;2023-05-28T11:34:52;96657.06;;;28.30;26.61
75290;BME280;63883;48.996;20.804;2023-05-28T11:37:29;96660.34;;;28.32;26.72
75290;BME280;63883;48.996;20.804;2023-05-28T11:39:56;96657.97;;;28.21;26.75
75290;BME280;63883;48.996;20.804;2023-05-28T11:42:23;96657.66;;;28.59;27.05
75290;BME280;63883;48.996;20.804;2023-05-28T11:44:50;96666.06;;;28.45;26.38
75290;BME280;63883;48.996;20.804;2023-05-28T11:47:20;96655.03;;;27.96;28.33
75290;BME280;63883;48.996;20.804;2023-05-28T11:49:46;96660.59;;;27.93;28.70
75290;BME280;63883;48.996;20.804;2023-05-28T11:52:14;96656.16;;;28.39;27.26
75290;BME280;63883;48.996;20.804;2023-05-28T11:54:41;96654.81;;;28.35;27.04
75290;BME280;63883;48.996;20.804;2023-05-28T11:57:08;96649.78;;;28.42;26.68
75290;BME280;63883;48.996;20.804;2023-05-28T11:59:33;96653.22;;;29.21;25.47
75290;BME280;63883;48.996;20.804;2023-05-28T12:02:14;96655.56;;;29.32;26.01
75290;BME280;63883;48.996;20.804;2023-05-28T12:04:59;96655.00;;;29.46;25.83
75290;BME280;63883;48.996;20.804;2023-05-28T12:07:32;96643.47;;;29.13;24.97
75290;BME280;63883;48.996;20.804;2023-05-28T12:10:08;96647.66;;;29.24;24.58
75290;BME280;63883;48.996;20.804;2023-05-28T12:12:39;96640.34;;;29.70;24.36
75290;BME280;63883;48.996;20.804;2023-05-28T12:15:05;96640.72;;;29.91;25.06
75290;BME280;63883;48.996;20.804;2023-05-28T12:17:36;96646.06;;;30.07;23.63
75290;BME280;63883;48.996;20.804;2023-05-28T12:22:31;96647.69;;;28.63;25.23
75290;BME280;63883;48.996;20.804;2023-05-28T12:24:57;96633.59;;;27.83;25.59
75290;BME280;63883;48.996;20.804;2023-05-28T12:27:23;96639.44;;;29.27;23.83
75290;BME280;63883;48.996;20.804;2023-05-28T12:29:49;96635.06;;;29.70;23.84
75290;BME280;63883;48.996;20.804;2023-05-28T12:32:14;96631.59;;;29.95;22.73
75290;BME280;63883;48.996;20.804;2023-05-28T12:34:40;96635.03;;;29.02;24.05
75290;BME280;63883;48.996;20.804;2023-05-28T12:37:06;96627.69;;;30.48;24.72
75290;BME280;63883;48.996;20.804;2023-05-28T12:39:32;96628.38;;;31.07;23.55
75290;BME280;63883;48.996;20.804;2023-05-28T12:41:58;96622.72;;;31.34;23.22
75290;BME280;63883;48.996;20.804;2023-05-28T12:44:23;96621.28;;;30.99;23.13
75290;BME280;63883;48.996;20.804;2023-05-28T12:46:50;96614.06;;;31.64;22.48
75290;BME280;63883;48.996;20.804;2023-05-28T12:49:18;96620.25;;;32.18;21.96
75290;BME280;63883;48.996;20.804;2023-05-28T12:51:43;96622.56;;;31.83;20.66
75290;BME280;63883;48.996;20.804;2023-05-28T12:54:09;96614.81;;;32.12;20.52
75290;BME280;63883;48.996;20.804;2023-05-28T12:56:35;96616.84;;;31.71;21.42
75290;BME280;63883;48.996;20.804;2023-05-28T12:59:01;96620.63;;;31.76;21.40
75290;BME280;63883;48.996;20.804;2023-05-28T13:01:26;96620.22;;;31.88;20.59
75290;BME280;63883;48.996;20.804;2023-05-28T13:03:52;96618.66;;;31.70;18.72
75290;BME280;63883;48.996;20.804;2023-05-28T13:06:18;96623.25;;;31.76;18.71
75290;BME280;63883;48.996;20.804;2023-05-28T13:08:44;96615.47;;;32.06;20.80
75290;BME280;63883;48.996;20.804;2023-05-28T13:11:11;96619.66;;;32.31;20.96
75290;BME280;63883;48.996;20.804;2023-05-28T13:13:37;96622.94;;;32.02;20.67